createdAt,value
2023-04-17T00:01:25.375Z,41.58
2023-04-17T00:03:52.973Z,39.88
2023-04-17T00:06:19.961Z,42.88
2023-04-17T00:08:46.751Z,41.53
2023-04-17T00:11:13.469Z,42.83
2023-04-17T00:13:40.109Z,41.28
2023-04-17T00:16:08.176Z,41.55
2023-04-17T00:18:34.829Z,42.05
2023-04-17T00:21:01.484Z,42.65
2023-04-17T00:23:28.123Z,41.72
2023-04-17T00:25:54.794Z,42.85
2023-04-17T00:28:21.524Z,42.72
2023-04-17T00:30:48.572Z,41.95
2023-04-17T00:33:15.549Z,42.38
2023-04-17T00:35:42.171Z,44.10
2023-04-17T00:38:11.212Z,42.42
2023-04-17T00:40:37.886Z,42.10
2023-04-17T00:43:06.449Z,42.75
2023-04-17T00:45:33.470Z,42.95
2023-04-17T00:48:03.444Z,42.88
2023-04-17T00:50:31.052Z,41.47
2023-04-17T00:52:58.545Z,40.70
2023-04-17T00:55:26.444Z,40.10
2023-04-17T00:57:53.306Z,40.38
2023-04-17T01:00:20.086Z,43.10
2023-04-17T01:02:47.166Z,41.45
2023-04-17T01:05:14.469Z,41.33
2023-04-17T01:07:42.244Z,41.95
2023-04-17T01:10:09.504Z,41.95
2023-04-17T01:12:36.615Z,42.78
2023-04-17T01:15:04.531Z,39.70
2023-04-17T01:17:31.629Z,41.40
2023-04-17T01:19:58.355Z,40.67
2023-04-17T01:22:25.270Z,41.63
2023-04-17T01:24:56.346Z,40.55
2023-04-17T01:27:24.986Z,42.20
2023-04-17T01:29:51.698Z,40.97
2023-04-17T01:32:19.217Z,41.28
2023-04-17T01:34:46.040Z,43.30
2023-04-17T01:37:13.082Z,43.25
2023-04-17T01:39:40.991Z,42.33
2023-04-17T01:42:07.808Z,42.70
2023-04-17T01:44:36.623Z,43.55
2023-04-17T01:47:03.909Z,44.63
2023-04-17T01:49:30.792Z,42.33
2023-04-17T01:51:57.383Z,44.53
2023-04-17T01:54:24.848Z,46.13
2023-04-17T01:56:51.976Z,45.22
2023-04-17T01:59:18.714Z,45.92
2023-04-17T02:01:45.419Z,47.33
2023-04-17T02:04:12.265Z,44.75
2023-04-17T02:06:39.002Z,43.97
2023-04-17T02:09:05.960Z,46.42
2023-04-17T02:11:32.696Z,44.40
2023-04-17T02:13:59.672Z,43.28
2023-04-17T02:16:26.714Z,47.40
2023-04-17T02:18:53.517Z,46.38
2023-04-17T02:21:21.041Z,48.47
2023-04-17T02:23:47.634Z,47.25
2023-04-17T02:26:14.434Z,46.00
2023-04-17T02:28:45.043Z,46.15
2023-04-17T02:31:12.637Z,48.03
2023-04-17T02:33:39.331Z,47.15
2023-04-17T02:36:07.164Z,48.60
2023-04-17T02:38:39.654Z,49.63
2023-04-17T02:41:06.495Z,48.67
2023-04-17T02:43:33.924Z,47.42
2023-04-17T02:46:01.287Z,47.13
2023-04-17T02:48:28.006Z,48.83
2023-04-17T02:50:54.894Z,50.47
2023-04-17T02:53:22.017Z,52.15
2023-04-17T02:55:49.682Z,48.63
2023-04-17T02:58:19.197Z,50.88
2023-04-17T03:00:46.059Z,50.60
2023-04-17T03:03:16.307Z,49.97
2023-04-17T03:05:43.199Z,50.55
2023-04-17T03:08:09.917Z,50.15
2023-04-17T03:10:44.266Z,48.78
2023-04-17T03:13:11.613Z,50.30
2023-04-17T03:15:38.249Z,47.90
2023-04-17T03:18:05.048Z,49.88
2023-04-17T03:20:32.133Z,50.05
2023-04-17T03:23:00.910Z,49.90
2023-04-17T03:25:27.532Z,51.78
2023-04-17T03:27:56.180Z,50.78
2023-04-17T03:30:28.173Z,50.65
2023-04-17T03:32:57.513Z,51.22
2023-04-17T03:35:24.845Z,48.55
2023-04-17T03:37:51.520Z,49.55
2023-04-17T03:40:18.232Z,52.45
2023-04-17T03:42:46.866Z,48.53
2023-04-17T03:45:13.617Z,49.70
2023-04-17T03:47:40.457Z,48.92
2023-04-17T03:50:07.931Z,49.40
2023-04-17T03:52:39.661Z,51.75
2023-04-17T03:55:07.128Z,49.63
2023-04-17T03:57:34.229Z,49.33
2023-04-17T04:00:01.174Z,51.15
2023-04-17T04:02:34.469Z,50.30
2023-04-17T04:05:01.363Z,53.00
2023-04-17T04:07:28.045Z,49.92
2023-04-17T04:09:55.774Z,54.55
2023-04-17T04:12:23.005Z,52.25
2023-04-17T04:14:51.818Z,49.70
2023-04-17T04:17:18.541Z,52.35
2023-04-17T04:19:46.348Z,50.70
2023-04-17T04:22:14.470Z,53.17
2023-04-17T04:24:47.328Z,50.13
2023-04-17T04:27:18.662Z,49.13
2023-04-17T04:29:48.628Z,51.75
2023-04-17T04:32:17.123Z,50.10
2023-04-17T04:34:46.134Z,52.15
2023-04-17T04:37:16.093Z,48.63
2023-04-17T04:39:44.553Z,51.15
2023-04-17T04:42:22.408Z,48.80
2023-04-17T04:45:07.482Z,49.50
2023-04-17T04:47:36.266Z,49.28
2023-04-17T04:50:03.365Z,48.88
2023-04-17T04:52:30.793Z,48.42
2023-04-17T04:55:01.382Z,47.40
2023-04-17T04:57:29.757Z,51.80
2023-04-17T04:59:59.910Z,49.97
2023-04-17T05:02:37.687Z,47.72
2023-04-17T05:05:09.439Z,50.65
2023-04-17T05:07:36.415Z,50.35
2023-04-17T05:10:06.177Z,48.22
2023-04-17T05:12:36.910Z,48.78
2023-04-17T05:15:07.048Z,50.63
2023-04-17T05:17:33.776Z,52.25
2023-04-17T05:20:00.670Z,52.20
2023-04-17T05:22:29.981Z,51.47
2023-04-17T05:25:04.553Z,49.50
2023-04-17T05:27:31.248Z,50.42
2023-04-17T05:29:59.053Z,50.42
2023-04-17T05:32:25.840Z,46.75
2023-04-17T05:34:56.085Z,49.08
2023-04-17T05:37:26.016Z,49.90
2023-04-17T05:39:52.637Z,50.17
2023-04-17T05:42:19.254Z,46.38
2023-04-17T05:44:46.046Z,47.55
2023-04-17T05:47:13.068Z,48.22
2023-04-17T05:49:40.035Z,45.45
2023-04-17T05:52:06.665Z,45.63
2023-04-17T05:54:37.656Z,48.30
2023-04-17T05:57:04.873Z,47.47
2023-04-17T05:59:31.925Z,44.78
2023-04-17T06:01:59.847Z,42.70
2023-04-17T06:04:27.040Z,43.67
2023-04-17T06:06:53.785Z,42.08
2023-04-17T06:09:21.330Z,42.33
2023-04-17T06:11:49.074Z,41.22
2023-04-17T06:14:15.979Z,38.97
2023-04-17T06:16:42.872Z,40.20
2023-04-17T06:19:09.718Z,42.95
2023-04-17T06:21:36.389Z,41.35
2023-04-17T06:24:03.072Z,40.10
2023-04-17T06:26:29.769Z,40.45
2023-04-17T06:28:56.672Z,40.53
2023-04-17T06:31:25.117Z,40.38
2023-04-17T06:33:51.747Z,38.50
2023-04-17T06:36:23.261Z,39.90
2023-04-17T06:38:54.188Z,38.25
2023-04-17T06:41:21.501Z,38.80
2023-04-17T06:43:48.135Z,39.17
2023-04-17T06:46:15.121Z,40.97
2023-04-17T06:48:41.913Z,41.33
2023-04-17T06:51:08.596Z,42.67
2023-04-17T06:53:35.267Z,40.03
2023-04-17T06:56:01.859Z,40.22
2023-04-17T06:58:28.495Z,41.17
2023-04-17T07:00:55.267Z,39.13
2023-04-17T07:03:22.139Z,39.10
2023-04-17T07:05:49.036Z,39.97
2023-04-17T07:08:15.871Z,39.58
2023-04-17T07:10:42.687Z,39.85
2023-04-17T07:13:09.273Z,40.28
2023-04-17T07:15:35.957Z,40.15
2023-04-17T07:18:02.646Z,40.50
2023-04-17T07:20:29.405Z,40.70
2023-04-17T07:22:56.565Z,40.08
2023-04-17T07:25:23.633Z,39.83
2023-04-17T07:27:50.379Z,38.65
2023-04-17T07:30:17.022Z,40.38
2023-04-17T07:32:43.860Z,36.83
2023-04-17T07:35:10.444Z,37.08
2023-04-17T07:37:37.179Z,39.70
2023-04-17T07:40:05.615Z,40.00
2023-04-17T07:42:32.255Z,37.70
2023-04-17T07:44:59.004Z,41.97
2023-04-17T07:47:25.658Z,41.55
2023-04-17T07:49:52.452Z,40.30
2023-04-17T07:52:19.035Z,40.28
2023-04-17T07:54:45.839Z,40.67
2023-04-17T07:57:14.056Z,39.05
2023-04-17T07:59:40.927Z,39.42
2023-04-17T08:02:08.046Z,41.60
2023-04-17T08:04:35.596Z,38.78
2023-04-17T08:07:02.451Z,38.42
2023-04-17T08:09:47.740Z,37.30
2023-04-17T08:12:14.389Z,38.72
2023-04-17T08:14:41.905Z,38.17
2023-04-17T08:17:08.829Z,38.75
2023-04-17T08:19:35.630Z,40.30
2023-04-17T08:22:04.617Z,40.42
2023-04-17T08:24:31.723Z,39.13
2023-04-17T08:26:58.818Z,41.38
2023-04-17T08:29:26.275Z,41.40
2023-04-17T08:32:00.190Z,41.47
2023-04-17T08:34:33.796Z,41.15
2023-04-17T08:37:00.716Z,39.20
2023-04-17T08:39:27.664Z,39.13
2023-04-17T08:42:01.841Z,40.47
2023-04-17T08:44:28.707Z,37.53
2023-04-17T08:46:58.720Z,38.50
2023-04-17T08:49:29.138Z,39.33
2023-04-17T08:51:55.913Z,35.72
2023-04-17T08:54:22.625Z,36.40
2023-04-17T08:56:49.391Z,38.08
2023-04-17T08:59:17.778Z,38.25
2023-04-17T09:02:07.399Z,38.30
2023-04-17T09:04:42.092Z,41.33
2023-04-17T09:07:11.962Z,36.75
2023-04-17T09:09:49.802Z,37.88
2023-04-17T09:12:16.980Z,35.47
2023-04-17T09:14:43.619Z,35.92
2023-04-17T09:17:10.468Z,36.58
2023-04-17T09:19:37.337Z,36.15
2023-04-17T09:22:21.704Z,35.75
2023-04-17T09:24:48.631Z,36.75
2023-04-17T09:27:25.181Z,35.58
2023-04-17T09:30:03.672Z,36.58
2023-04-17T09:32:32.619Z,37.13
2023-04-17T09:35:04.579Z,37.30
2023-04-17T09:37:54.776Z,38.33
2023-04-17T09:40:23.904Z,36.70
2023-04-17T09:43:08.928Z,36.40
2023-04-17T09:45:41.807Z,37.97
2023-04-17T09:48:11.391Z,38.03
2023-04-17T09:50:39.053Z,37.47
2023-04-17T09:53:07.184Z,39.38
2023-04-17T09:55:36.313Z,37.25
2023-04-17T09:58:05.016Z,37.25
2023-04-17T10:00:31.922Z,36.08
2023-04-17T10:02:59.545Z,40.00
2023-04-17T10:05:31.505Z,43.63
2023-04-17T10:07:58.852Z,43.03
2023-04-17T10:10:30.213Z,42.90
2023-04-17T10:13:11.065Z,44.47
2023-04-17T10:15:39.074Z,42.00
2023-04-17T10:18:32.820Z,44.50
2023-04-17T10:21:23.844Z,44.90
2023-04-17T10:23:50.556Z,46.85
2023-04-17T10:26:25.986Z,44.65
2023-04-17T10:28:54.439Z,45.25
2023-04-17T10:31:23.506Z,44.03
2023-04-17T10:33:54.449Z,43.50
2023-04-17T10:36:39.723Z,43.30
2023-04-17T10:39:16.184Z,42.00
2023-04-17T10:42:02.055Z,43.05
2023-04-17T10:44:35.878Z,43.42
2023-04-17T10:47:15.836Z,44.72
2023-04-17T10:49:55.842Z,45.13
2023-04-17T10:52:34.724Z,41.92
2023-04-17T10:55:16.108Z,39.95
2023-04-17T10:57:59.373Z,43.03
2023-04-17T11:00:33.060Z,44.95
2023-04-17T11:05:28.363Z,44.28
2023-04-17T11:07:55.038Z,46.35
2023-04-17T11:10:22.838Z,47.20
2023-04-17T11:12:55.564Z,46.35
2023-04-17T11:15:30.344Z,46.05
2023-04-17T11:17:58.957Z,41.67
2023-04-17T11:20:30.677Z,45.67
2023-04-17T11:23:02.247Z,41.83
2023-04-17T11:25:31.447Z,41.83
2023-04-17T11:27:59.099Z,43.92
2023-04-17T11:30:33.808Z,41.70
2023-04-17T11:33:02.409Z,45.88
2023-04-17T11:35:34.055Z,39.80
2023-04-17T11:38:20.876Z,39.17
2023-04-17T11:40:53.496Z,40.75
2023-04-17T11:43:21.858Z,43.40
2023-04-17T11:45:53.748Z,44.15
2023-04-17T11:48:22.953Z,43.85
2023-04-17T11:50:53.803Z,40.17
2023-04-17T11:53:20.626Z,44.83
2023-04-17T11:55:48.781Z,42.67
2023-04-17T11:58:15.586Z,40.08
2023-04-17T12:00:42.916Z,39.65
2023-04-17T12:03:35.531Z,44.95
2023-04-17T12:06:04.290Z,40.08
2023-04-17T12:08:31.388Z,40.42
2023-04-17T12:10:58.367Z,41.65
2023-04-17T12:13:26.124Z,42.15
2023-04-17T12:15:52.996Z,42.83
2023-04-17T12:18:19.629Z,45.05
2023-04-17T12:20:46.374Z,43.85
2023-04-17T12:23:13.051Z,43.95
2023-04-17T12:25:39.636Z,43.92
2023-04-17T12:28:06.909Z,44.05
2023-04-17T12:30:35.853Z,44.03
2023-04-17T12:33:02.809Z,43.63
2023-04-17T12:35:29.854Z,45.55
2023-04-17T12:37:56.588Z,44.00
2023-04-17T12:40:25.009Z,41.33
2023-04-17T12:42:51.995Z,41.72
2023-04-17T12:45:19.177Z,42.42
2023-04-17T12:47:45.912Z,44.63
2023-04-17T12:50:12.848Z,45.33
2023-04-17T12:52:40.809Z,42.25
2023-04-17T12:55:08.803Z,40.63
2023-04-17T12:57:36.506Z,38.42
2023-04-17T13:00:09.376Z,39.95
2023-04-17T13:02:36.560Z,40.35
2023-04-17T13:05:05.835Z,38.58
2023-04-17T13:07:33.159Z,41.05
2023-04-17T13:09:59.927Z,43.30
2023-04-17T13:12:26.621Z,42.50
2023-04-17T13:14:53.981Z,41.85
2023-04-17T13:17:21.323Z,42.95
2023-04-17T13:19:48.237Z,41.28
2023-04-17T13:22:15.983Z,41.03
2023-04-17T13:24:42.775Z,39.72
2023-04-17T13:27:10.400Z,41.10
2023-04-17T13:29:37.200Z,39.42
2023-04-17T13:32:04.196Z,39.17
2023-04-17T13:34:30.919Z,40.20
2023-04-17T13:36:57.832Z,39.47
2023-04-17T13:39:24.519Z,37.53
2023-04-17T13:41:51.387Z,39.88
2023-04-17T13:44:18.616Z,39.35
2023-04-17T13:46:45.603Z,41.83
2023-04-17T13:49:12.566Z,41.72
2023-04-17T13:51:39.436Z,43.67
2023-04-17T13:54:06.596Z,44.08
2023-04-17T13:56:33.390Z,42.22
2023-04-17T13:59:00.077Z,42.00
2023-04-17T14:01:27.108Z,40.83
2023-04-17T14:03:54.180Z,42.83
2023-04-17T14:06:21.189Z,44.53
2023-04-17T14:08:48.685Z,43.78
2023-04-17T14:11:17.225Z,42.20
2023-04-17T14:13:43.953Z,44.15
2023-04-17T14:16:10.836Z,44.95
2023-04-17T14:18:37.566Z,45.75
2023-04-17T14:21:04.705Z,42.20
2023-04-17T14:23:31.495Z,44.13
2023-04-17T14:25:58.528Z,46.05
2023-04-17T14:28:25.255Z,42.38
2023-04-17T14:30:52.005Z,46.80
2023-04-17T14:33:18.715Z,45.38
2023-04-17T14:35:45.397Z,45.20
2023-04-17T14:38:12.114Z,43.33
2023-04-17T14:40:38.936Z,45.47
2023-04-17T14:43:05.592Z,46.30
2023-04-17T14:45:32.365Z,44.10
2023-04-17T14:47:59.250Z,43.30
2023-04-17T14:50:26.003Z,44.83
2023-04-17T14:52:52.703Z,44.30
2023-04-17T14:55:19.411Z,45.13
2023-04-17T14:57:46.118Z,46.67
2023-04-17T15:00:13.427Z,45.40
2023-04-17T15:02:40.881Z,46.78
2023-04-17T15:05:08.473Z,45.47
2023-04-17T15:07:35.711Z,44.70
2023-04-17T15:10:02.508Z,44.55
2023-04-17T15:12:29.276Z,44.80
2023-04-17T15:14:56.474Z,43.25
2023-04-17T15:17:23.300Z,46.72
2023-04-17T15:19:50.137Z,45.17
2023-04-17T15:22:16.948Z,44.95
2023-04-17T15:24:43.733Z,44.25
2023-04-17T15:27:11.529Z,44.30
2023-04-17T15:29:38.804Z,42.35
2023-04-17T15:32:05.753Z,42.47
2023-04-17T15:34:34.668Z,44.10
2023-04-17T15:37:01.506Z,44.28
2023-04-17T15:39:28.302Z,43.38
2023-04-17T15:41:56.380Z,46.55
2023-04-17T15:44:23.146Z,46.67
2023-04-17T15:46:50.217Z,46.95
2023-04-17T15:49:17.245Z,43.58
2023-04-17T15:51:43.893Z,47.03
2023-04-17T15:54:11.989Z,47.65
2023-04-17T15:56:39.618Z,49.45
2023-04-17T15:59:06.362Z,44.40
2023-04-17T16:01:33.118Z,47.25
2023-04-17T16:04:00.056Z,44.13
2023-04-17T16:06:27.604Z,42.05
2023-04-17T16:08:54.290Z,42.72
2023-04-17T16:11:20.993Z,42.55
2023-04-17T16:13:47.664Z,46.83
2023-04-17T16:16:14.442Z,45.88
2023-04-17T16:18:41.674Z,45.90
2023-04-17T16:21:11.706Z,42.80
2023-04-17T16:23:39.364Z,43.50
2023-04-17T16:26:06.844Z,40.78
2023-04-17T16:28:34.069Z,43.65
2023-04-17T16:31:01.035Z,41.65
2023-04-17T16:33:27.783Z,40.65
2023-04-17T16:35:54.572Z,42.20
2023-04-17T16:38:21.224Z,41.95
2023-04-17T16:40:47.930Z,41.80
2023-04-17T16:43:14.846Z,42.22
2023-04-17T16:45:41.958Z,42.03
2023-04-17T16:48:10.905Z,42.05
2023-04-17T16:50:37.906Z,42.95
2023-04-17T16:53:04.687Z,44.20
2023-04-17T16:55:31.442Z,42.60
2023-04-17T16:58:00.153Z,45.17
2023-04-17T17:00:27.073Z,46.00
2023-04-17T17:02:53.844Z,44.15
2023-04-17T17:05:20.730Z,43.10
2023-04-17T17:07:47.660Z,39.20
2023-04-17T17:10:14.437Z,39.60
2023-04-17T17:12:41.254Z,40.15
2023-04-17T17:15:08.309Z,40.28
2023-04-17T17:17:35.043Z,38.20
2023-04-17T17:20:02.016Z,38.55
2023-04-17T17:22:28.720Z,40.22
2023-04-17T17:24:56.121Z,40.47
2023-04-17T17:27:22.862Z,39.53
2023-04-17T17:29:49.522Z,39.63
2023-04-17T17:32:16.814Z,39.17
2023-04-17T17:34:43.726Z,40.00
2023-04-17T17:37:10.641Z,39.83
2023-04-17T17:39:37.329Z,39.50
2023-04-17T17:42:08.637Z,38.80
2023-04-17T17:44:35.869Z,40.17
2023-04-17T17:47:03.269Z,39.97
2023-04-17T17:49:30.872Z,42.08
2023-04-17T17:51:57.653Z,41.00
2023-04-17T17:54:24.549Z,41.33
2023-04-17T17:56:51.288Z,41.53
2023-04-17T17:59:17.948Z,40.78
2023-04-17T18:01:44.721Z,40.80
2023-04-17T18:04:11.891Z,41.88
2023-04-17T18:06:40.809Z,41.03
2023-04-17T18:09:07.468Z,41.63
2023-04-17T18:11:34.151Z,41.97
2023-04-17T18:14:00.874Z,41.60
2023-04-17T18:16:31.507Z,42.28
2023-04-17T18:19:03.183Z,33.05
2023-04-17T18:21:31.195Z,33.08
2023-04-17T18:23:58.165Z,32.63
2023-04-17T18:26:25.084Z,33.58
2023-04-17T18:28:51.756Z,32.60
2023-04-17T18:31:20.384Z,32.65
2023-04-17T18:33:47.142Z,33.35
2023-04-17T18:36:13.851Z,32.65
2023-04-17T18:38:40.603Z,34.15
2023-04-17T18:41:07.321Z,33.08
2023-04-17T18:43:34.631Z,33.45
2023-04-17T18:46:07.480Z,33.47
2023-04-17T18:48:34.636Z,42.90
2023-04-17T18:51:11.952Z,34.33
2023-04-17T18:53:38.727Z,33.80
2023-04-17T18:56:06.490Z,32.90
2023-04-17T18:58:33.164Z,34.10
2023-04-17T19:01:00.279Z,32.58
2023-04-17T19:03:27.010Z,33.78
2023-04-17T19:05:53.725Z,34.05
2023-04-17T19:08:20.456Z,32.50
2023-04-17T19:10:47.209Z,33.30
2023-04-17T19:13:14.171Z,34.65
2023-04-17T19:15:40.874Z,34.92
2023-04-17T19:18:08.887Z,34.65
2023-04-17T19:20:39.832Z,33.83
2023-04-17T19:23:06.493Z,33.28
2023-04-17T19:25:33.213Z,34.10
2023-04-17T19:27:59.900Z,32.88
2023-04-17T19:30:26.691Z,33.13
2023-04-17T19:32:53.371Z,32.58
2023-04-17T19:35:20.152Z,31.58
2023-04-17T19:37:46.902Z,33.55
2023-04-17T19:40:24.465Z,32.17
2023-04-17T19:42:51.594Z,34.63
2023-04-17T19:45:19.369Z,35.65
2023-04-17T19:47:46.214Z,36.35
2023-04-17T19:50:12.908Z,33.38
2023-04-17T19:52:39.894Z,32.80
2023-04-17T19:55:09.777Z,33.13
2023-04-17T19:57:36.455Z,33.38
2023-04-17T20:00:03.793Z,34.72
2023-04-17T20:02:39.410Z,31.95
2023-04-17T20:05:07.109Z,31.48
2023-04-17T20:07:33.839Z,31.45
2023-04-17T20:10:01.218Z,31.77
2023-04-17T20:12:28.567Z,31.48
2023-04-17T20:14:55.264Z,31.70
2023-04-17T20:17:21.982Z,32.40
2023-04-17T20:19:48.627Z,32.03
2023-04-17T20:22:15.339Z,32.28
2023-04-17T20:24:42.033Z,32.33
2023-04-17T20:27:08.654Z,31.42
2023-04-17T20:29:35.912Z,31.63
2023-04-17T20:32:03.741Z,32.80
2023-04-17T20:34:34.838Z,31.75
2023-04-17T20:37:02.032Z,31.83
2023-04-17T20:39:29.017Z,32.42
2023-04-17T20:41:56.299Z,31.85
2023-04-17T20:44:23.021Z,31.77
2023-04-17T20:46:49.764Z,31.58
2023-04-17T20:49:16.528Z,32.05
2023-04-17T20:51:44.266Z,32.83
2023-04-17T20:54:11.186Z,32.05
2023-04-17T20:56:37.998Z,31.67
2023-04-17T20:59:04.726Z,31.80
2023-04-17T21:01:31.468Z,31.85
2023-04-17T21:03:58.380Z,30.00
2023-04-17T21:06:26.594Z,29.48
2023-04-17T21:08:54.073Z,29.80
2023-04-17T21:11:21.463Z,30.15
2023-04-17T21:13:48.352Z,29.95
2023-04-17T21:16:15.070Z,28.17
2023-04-17T21:18:41.804Z,27.98
2023-04-17T21:21:08.474Z,27.88
2023-04-17T21:23:35.138Z,25.83
2023-04-17T21:26:01.993Z,29.20
2023-04-17T21:28:28.766Z,27.65
2023-04-17T21:30:55.365Z,27.55
2023-04-17T21:33:22.420Z,26.95
2023-04-17T21:35:49.062Z,27.85
2023-04-17T21:38:15.855Z,27.40
2023-04-17T21:40:51.103Z,24.35
2023-04-17T21:43:18.450Z,26.85
2023-04-17T21:45:45.253Z,26.40
2023-04-17T21:48:11.928Z,26.35
2023-04-17T21:50:41.090Z,25.85
2023-04-17T21:53:08.166Z,24.80
2023-04-17T21:55:35.486Z,26.13
2023-04-17T21:58:02.245Z,25.58
2023-04-17T22:00:29.037Z,25.02
2023-04-17T22:02:55.739Z,26.70
2023-04-17T22:05:22.526Z,25.40
2023-04-17T22:07:54.868Z,25.98
2023-04-17T22:10:23.288Z,24.17
2023-04-17T22:12:50.560Z,23.98
2023-04-17T22:15:17.361Z,25.35
2023-04-17T22:17:44.568Z,23.30
2023-04-17T22:20:11.776Z,23.45
2023-04-17T22:22:38.459Z,21.40
2023-04-17T22:25:05.675Z,25.08
2023-04-17T22:27:32.528Z,24.38
2023-04-17T22:29:59.389Z,23.00
2023-04-17T22:32:26.152Z,23.60
2023-04-17T22:34:52.818Z,23.35
2023-04-17T22:37:19.523Z,22.98
2023-04-17T22:39:46.241Z,23.55
2023-04-17T22:42:12.864Z,21.48
2023-04-17T22:44:39.552Z,22.42
2023-04-17T22:47:06.195Z,22.90
2023-04-17T22:49:37.975Z,24.65
2023-04-17T22:52:06.144Z,21.98
2023-04-17T22:54:33.622Z,21.48
2023-04-17T22:57:00.441Z,22.02
2023-04-17T22:59:27.275Z,22.92
2023-04-17T23:01:54.499Z,22.52
2023-04-17T23:04:23.051Z,23.13
2023-04-17T23:06:50.266Z,22.45
2023-04-17T23:09:16.897Z,23.90
2023-04-17T23:11:43.625Z,23.50
2023-04-17T23:14:11.319Z,24.35
2023-04-17T23:16:38.173Z,23.15
2023-04-17T23:19:05.029Z,25.25
2023-04-17T23:21:31.792Z,25.17
2023-04-17T23:23:58.493Z,23.48
2023-04-17T23:26:25.743Z,24.52
2023-04-17T23:28:52.455Z,24.92
2023-04-17T23:31:19.546Z,25.20
2023-04-17T23:33:46.228Z,26.45
2023-04-17T23:36:13.526Z,25.73
2023-04-17T23:38:40.255Z,24.92
2023-04-17T23:41:07.053Z,25.95
2023-04-17T23:43:33.695Z,24.15
2023-04-17T23:46:00.742Z,25.10
2023-04-17T23:48:28.070Z,25.75
2023-04-17T23:50:54.887Z,24.52
2023-04-17T23:53:21.523Z,25.10
2023-04-17T23:55:48.189Z,24.98
2023-04-17T23:58:14.917Z,25.17
